Time;durP1;ratioP1;P1;durP2;ratioP2;P2;SDS_P1;SDS_P2;PMS_P1;PMS_P2;Temp;Humidity;BMP_temperature;BMP_pressure;BME280_temperature;BME280_humidity;BME280_pressure;Samples;Min_cycle;Max_cycle;Signal;HPM_P1;HPM_P2
2023/05/06 00:00:59;;;;;;;3.28;1.77;;;14.30;76.00;;;;;;5040652;28;20060;-89
2023/05/06 00:03:25;;;;;;;1.95;1.58;;;14.30;75.90;;;;;;5036053;28;20033;-90
2023/05/06 00:05:51;;;;;;;1.45;1.05;;;14.30;75.90;;;;;;5035285;28;20115;-90
2023/05/06 00:08:17;;;;;;;2.22;1.50;;;14.30;75.90;;;;;;5036132;28;20116;-90
2023/05/06 00:11:01;;;;;;;1.65;1.10;;;14.30;75.90;;;;;;5031708;28;20063;-90
2023/05/06 00:13:27;;;;;;;2.05;1.55;;;14.30;75.70;;;;;;5018878;28;20495;-88
2023/05/06 00:15:53;;;;;;;1.42;1.20;;;14.30;75.90;;;;;;5023682;28;20065;-87
2023/05/06 00:18:21;;;;;;;3.70;2.03;;;14.30;75.90;;;;;;5013085;28;20068;-88
2023/05/06 00:20:46;;;;;;;2.15;1.70;;;14.40;76.00;;;;;;5032633;28;20027;-87
2023/05/06 00:23:12;;;;;;;3.33;2.28;;;14.40;76.10;;;;;;5032452;28;20108;-87
2023/05/06 00:25:38;;;;;;;2.58;1.80;;;14.40;76.20;;;;;;5034211;28;20025;-88
2023/05/06 00:28:04;;;;;;;2.33;1.35;;;14.40;76.30;;;;;;5032968;28;20045;-87
2023/05/06 00:30:30;;;;;;;2.97;1.60;;;14.40;76.30;;;;;;5032826;28;20037;-87
2023/05/06 00:32:55;;;;;;;1.73;1.33;;;14.40;76.40;;;;;;5021172;28;20053;-87
2023/05/06 00:35:21;;;;;;;3.40;1.67;;;14.40;76.50;;;;;;5050332;28;20033;-88
2023/05/06 00:37:56;;;;;;;2.25;1.63;;;14.40;76.60;;;;;;5036626;28;20742;-88
2023/05/06 00:40:22;;;;;;;1.92;1.63;;;14.40;76.60;;;;;;5041443;28;20472;-88
2023/05/06 00:42:48;;;;;;;5.05;1.92;;;14.40;76.80;;;;;;5031573;28;20079;-87
2023/05/06 00:45:13;;;;;;;1.77;1.30;;;14.40;76.90;;;;;;5038076;28;20060;-88
2023/05/06 00:47:40;;;;;;;1.88;1.50;;;14.50;77.10;;;;;;5013452;28;20028;-88
2023/05/06 00:50:06;;;;;;;2.78;1.60;;;14.50;77.10;;;;;;5065534;28;20394;-88
2023/05/06 00:52:32;;;;;;;3.55;2.05;;;14.50;77.10;;;;;;5035207;28;20040;-86
2023/05/06 00:54:58;;;;;;;2.45;1.48;;;14.50;77.10;;;;;;5018853;28;20083;-87
2023/05/06 00:57:24;;;;;;;3.45;1.95;;;14.50;77.20;;;;;;5021566;28;20116;-87
2023/05/06 00:59:50;;;;;;;4.25;2.00;;;14.50;77.20;;;;;;5011384;28;20042;-86
2023/05/06 01:02:16;;;;;;;1.95;1.40;;;14.50;77.20;;;;;;5016322;28;20029;-86
2023/05/06 01:04:41;;;;;;;1.73;1.48;;;14.40;77.20;;;;;;5016820;28;20028;-86
2023/05/06 01:07:39;;;;;;;3.15;1.70;;;14.40;77.30;;;;;;5013544;28;20034;-86
2023/05/06 01:10:19;;;;;;;2.03;1.50;;;14.40;77.20;;;;;;5047754;28;20037;-86
2023/05/06 01:12:53;;;;;;;2.90;1.55;;;14.40;77.30;;;;;;5032670;28;20420;-86
2023/05/06 01:15:53;;;;;;;3.05;2.22;;;14.40;77.20;;;;;;5061787;28;20087;-86
2023/05/06 01:18:21;;;;;;;3.80;2.63;;;14.40;77.20;;;;;;5017485;28;20029;-86
2023/05/06 01:20:49;;;;;;;2.85;2.10;;;14.30;77.40;;;;;;5051159;28;20475;-86
2023/05/06 01:23:16;;;;;;;3.90;2.00;;;14.40;77.60;;;;;;5018627;28;20025;-89
2023/05/06 01:25:42;;;;;;;1.90;1.33;;;14.40;77.60;;;;;;5050237;28;20034;-89
2023/05/06 01:28:12;;;;;;;3.40;1.70;;;14.40;77.60;;;;;;5035052;28;20039;-90
2023/05/06 01:31:02;;;;;;;2.78;1.67;;;14.40;77.60;;;;;;5049609;28;20093;-90
2023/05/06 01:33:34;;;;;;;2.92;2.00;;;14.50;77.60;;;;;;5032391;28;20041;-90
2023/05/06 01:36:25;;;;;;;2.67;1.95;;;14.50;77.80;;;;;;5033692;28;20025;-90
2023/05/06 01:39:11;;;;;;;3.10;1.70;;;14.50;77.70;;;;;;5048632;28;20033;-90
2023/05/06 01:41:40;;;;;;;2.97;1.55;;;14.50;77.80;;;;;;5031788;28;20132;-91
2023/05/06 01:44:07;;;;;;;4.40;2.53;;;14.50;77.80;;;;;;5033833;28;20392;-89
2023/05/06 01:46:34;;;;;;;3.95;2.25;;;14.50;77.90;;;;;;5034418;28;20024;-89
2023/05/06 01:49:03;;;;;;;2.92;1.67;;;14.50;77.90;;;;;;5035325;28;20086;-89
2023/05/06 01:51:32;;;;;;;3.97;2.17;;;14.50;77.80;;;;;;5053792;28;20025;-90
2023/05/06 01:53:58;;;;;;;4.75;2.10;;;14.60;77.90;;;;;;5036715;28;20126;-90
2023/05/06 01:56:25;;;;;;;3.95;2.15;;;14.60;77.90;;;;;;5032915;28;20064;-90
2023/05/06 01:58:51;;;;;;;3.28;1.92;;;14.60;77.90;;;;;;5013298;28;20498;-86
2023/05/06 02:01:16;;;;;;;3.95;2.10;;;14.60;77.90;;;;;;5016641;28;20167;-86
2023/05/06 02:03:42;;;;;;;4.55;2.65;;;14.60;77.90;;;;;;5024783;28;20440;-86
2023/05/06 02:06:08;;;;;;;4.18;2.15;;;14.60;78.00;;;;;;5031596;28;20106;-87
2023/05/06 02:08:33;;;;;;;2.45;1.70;;;14.60;78.00;;;;;;5034834;28;20037;-87
2023/05/06 02:10:59;;;;;;;2.28;1.75;;;14.50;78.00;;;;;;5018841;28;20403;-86
2023/05/06 02:13:25;;;;;;;2.63;1.70;;;14.50;78.10;;;;;;5032664;28;20032;-90
2023/05/06 02:15:54;;;;;;;3.35;2.38;;;14.50;78.10;;;;;;5032720;28;20048;-89
2023/05/06 02:18:19;;;;;;;3.42;2.17;;;14.40;78.00;;;;;;5038936;28;20030;-89
2023/05/06 02:20:45;;;;;;;4.85;2.88;;;14.40;78.00;;;;;;5049547;28;20017;-89
2023/05/06 02:23:11;;;;;;;3.75;1.85;;;14.40;78.20;;;;;;5017363;28;20037;-89
2023/05/06 02:25:36;;;;;;;4.38;2.75;;;14.30;78.20;;;;;;5024117;28;20036;-90
2023/05/06 02:28:02;;;;;;;4.30;2.58;;;14.30;78.30;;;;;;5058236;28;20058;-92
2023/05/06 02:30:29;;;;;;;4.03;2.40;;;14.30;78.20;;;;;;5053208;28;20033;-90
2023/05/06 02:32:56;;;;;;;5.60;3.00;;;14.20;78.10;;;;;;5023189;28;20056;-87
2023/05/06 02:35:22;;;;;;;3.10;2.08;;;14.20;78.10;;;;;;5008418;28;20512;-89
2023/05/06 02:37:48;;;;;;;2.78;2.08;;;14.20;78.00;;;;;;5032869;28;20040;-89
2023/05/06 02:40:14;;;;;;;2.53;1.73;;;14.10;78.00;;;;;;5035276;28;20025;-89
2023/05/06 02:42:39;;;;;;;3.20;1.88;;;14.10;77.90;;;;;;5023427;28;20040;-89
2023/05/06 02:45:06;;;;;;;3.03;1.92;;;14.10;77.90;;;;;;5032561;28;20026;-89
2023/05/06 02:47:32;;;;;;;6.55;3.20;;;14.10;77.80;;;;;;5020848;28;20032;-89
2023/05/06 02:49:57;;;;;;;3.85;2.30;;;14.10;77.80;;;;;;5040308;28;20017;-89
2023/05/06 02:52:23;;;;;;;3.60;2.25;;;14.00;77.80;;;;;;5019767;28;20070;-90
2023/05/06 02:54:49;;;;;;;5.57;2.90;;;14.00;77.80;;;;;;5041763;28;20028;-90
2023/05/06 02:57:15;;;;;;;3.47;2.00;;;14.00;77.90;;;;;;5024880;28;20119;-89
2023/05/06 02:59:41;;;;;;;5.50;2.47;;;14.00;77.90;;;;;;5037179;28;20151;-90
2023/05/06 03:02:06;;;;;;;4.18;2.28;;;14.00;77.80;;;;;;5037372;28;20029;-91
2023/05/06 03:04:32;;;;;;;4.65;2.50;;;14.00;77.80;;;;;;5037836;28;20032;-88
2023/05/06 03:06:58;;;;;;;3.38;2.28;;;14.00;77.80;;;;;;5037201;28;20498;-87
2023/05/06 03:09:23;;;;;;;17.25;2.33;;;13.90;77.70;;;;;;5035744;28;20621;-87
2023/05/06 03:11:49;;;;;;;4.18;2.30;;;13.90;77.70;;;;;;5037256;28;20028;-90
2023/05/06 03:14:15;;;;;;;2.55;2.15;;;13.90;77.70;;;;;;5054713;28;20145;-90
2023/05/06 03:16:41;;;;;;;4.93;2.60;;;13.90;77.70;;;;;;5039130;28;20025;-90
2023/05/06 03:19:06;;;;;;;7.95;3.20;;;13.90;77.80;;;;;;5020641;28;20025;-87
2023/05/06 03:21:32;;;;;;;6.32;3.22;;;13.90;77.80;;;;;;5037730;28;20025;-86
2023/05/06 03:23:58;;;;;;;4.28;3.15;;;13.80;77.80;;;;;;5035308;28;20472;-87
2023/05/06 03:26:24;;;;;;;7.32;3.47;;;13.80;77.80;;;;;;5032483;28;20029;-87
2023/05/06 03:28:50;;;;;;;9.25;3.30;;;13.80;77.80;;;;;;5033842;28;20538;-87
2023/05/06 03:31:15;;;;;;;6.47;3.78;;;13.70;77.90;;;;;;5019792;28;20052;-87
2023/05/06 03:33:41;;;;;;;8.32;4.15;;;13.70;78.00;;;;;;5017280;28;20059;-87
2023/05/06 03:36:07;;;;;;;6.93;3.75;;;13.60;78.00;;;;;;5051675;28;20032;-90
2023/05/06 03:38:33;;;;;;;7.00;4.68;;;13.60;78.00;;;;;;5037169;28;20507;-91
2023/05/06 03:40:58;;;;;;;10.82;4.22;;;13.50;78.00;;;;;;5023816;28;20032;-90
2023/05/06 03:43:24;;;;;;;9.20;4.28;;;13.50;78.20;;;;;;5035758;28;20521;-89
2023/05/06 03:45:50;;;;;;;7.35;4.05;;;13.50;78.20;;;;;;5021973;28;20037;-87
2023/05/06 03:48:15;;;;;;;4.75;3.22;;;13.50;78.20;;;;;;5050396;28;20025;-88
2023/05/06 03:50:41;;;;;;;6.25;3.60;;;13.40;78.20;;;;;;5034631;28;20051;-86
2023/05/06 03:53:07;;;;;;;4.47;2.30;;;13.40;78.10;;;;;;5031212;28;20033;-86
2023/05/06 03:55:33;;;;;;;6.18;3.03;;;13.40;78.00;;;;;;5030811;28;20025;-86
2023/05/06 03:58:00;;;;;;;5.95;2.92;;;13.50;78.00;;;;;;5037220;28;20025;-86
2023/05/06 04:00:25;;;;;;;4.55;2.58;;;13.50;77.90;;;;;;5029297;28;20025;-86
2023/05/06 04:02:53;;;;;;;4.85;2.92;;;13.50;77.90;;;;;;5046964;28;20090;-87
2023/05/06 04:05:22;;;;;;;6.43;3.60;;;13.50;78.00;;;;;;5012872;28;20040;-87
2023/05/06 04:07:48;;;;;;;7.32;4.00;;;13.50;78.10;;;;;;5008676;28;20026;-87
2023/05/06 04:10:13;;;;;;;8.65;4.53;;;13.60;78.30;;;;;;5033583;28;20044;-88
2023/05/06 04:12:39;;;;;;;6.20;4.10;;;13.60;78.40;;;;;;5016548;28;20118;-88
2023/05/06 04:15:06;;;;;;;7.18;3.95;;;13.60;78.50;;;;;;5019733;28;20119;-88
2023/05/06 04:17:31;;;;;;;21.52;4.60;;;13.60;78.50;;;;;;5017329;28;20528;-91
2023/05/06 04:19:57;;;;;;;8.05;3.53;;;13.60;78.60;;;;;;5020554;28;20114;-89
2023/05/06 04:22:23;;;;;;;9.65;4.30;;;13.60;78.60;;;;;;5031985;28;20029;-88
2023/05/06 04:24:49;;;;;;;7.30;4.28;;;13.60;78.80;;;;;;5032266;28;20041;-86
2023/05/06 04:27:16;;;;;;;10.25;3.50;;;13.60;78.90;;;;;;5028409;28;20059;-86
2023/05/06 04:29:42;;;;;;;6.35;3.53;;;13.60;79.20;;;;;;5016494;28;20033;-87
2023/05/06 04:32:10;;;;;;;6.57;3.40;;;13.60;79.40;;;;;;5036033;28;20112;-87
2023/05/06 04:34:36;;;;;;;5.28;2.92;;;13.70;79.60;;;;;;5020767;28;20034;-87
2023/05/06 04:37:02;;;;;;;7.20;3.40;;;13.70;79.80;;;;;;5028161;28;20039;-86
2023/05/06 04:39:28;;;;;;;5.95;3.42;;;13.70;79.80;;;;;;5019669;28;20072;-90
2023/05/06 04:41:53;;;;;;;4.90;3.28;;;13.80;79.80;;;;;;4998345;28;20042;-88
2023/05/06 04:44:19;;;;;;;3.78;2.60;;;13.80;79.90;;;;;;5024968;28;20037;-91
2023/05/06 04:46:46;;;;;;;4.45;2.40;;;13.80;80.00;;;;;;5016154;28;20025;-89
2023/05/06 04:49:12;;;;;;;4.10;2.78;;;13.80;80.00;;;;;;5011697;28;20029;-85
2023/05/06 04:51:37;;;;;;;4.40;2.58;;;13.80;80.00;;;;;;5013924;28;20021;-92
2023/05/06 04:54:03;;;;;;;5.05;3.17;;;13.80;80.00;;;;;;5018987;28;20029;-91
2023/05/06 04:56:29;;;;;;;2.55;2.10;;;13.90;80.10;;;;;;5001894;28;20028;-86
2023/05/06 04:58:55;;;;;;;2.50;1.85;;;13.90;80.10;;;;;;5031001;28;20025;-86
2023/05/06 05:01:20;;;;;;;5.47;2.47;;;13.90;80.00;;;;;;5019235;28;20442;-85
2023/05/06 05:03:46;;;;;;;3.30;2.58;;;13.90;79.90;;;;;;5001963;28;20021;-85
2023/05/06 05:06:12;;;;;;;3.25;2.10;;;14.00;80.00;;;;;;5015038;28;20029;-86
2023/05/06 05:08:38;;;;;;;4.00;2.30;;;14.00;80.00;;;;;;5007436;28;20437;-88
2023/05/06 05:11:07;;;;;;;2.83;2.10;;;14.00;80.00;;;;;;4999463;28;20037;-89
2023/05/06 05:13:34;;;;;;;3.45;2.20;;;14.00;80.00;;;;;;5018591;28;20027;-88
2023/05/06 05:15:59;;;;;;;2.90;1.42;;;14.00;80.00;;;;;;5044532;28;20488;-90
2023/05/06 05:18:27;;;;;;;4.90;2.03;;;14.00;80.00;;;;;;5012502;28;20022;-90
2023/05/06 05:20:53;;;;;;;3.80;2.00;;;14.10;79.90;;;;;;5027246;28;20067;-90
2023/05/06 05:23:19;;;;;;;2.92;2.05;;;14.10;79.90;;;;;;5000330;28;20037;-87
2023/05/06 05:25:45;;;;;;;3.20;2.22;;;14.20;79.90;;;;;;5013404;28;20120;-86
2023/05/06 05:28:10;;;;;;;3.92;2.22;;;14.10;79.70;;;;;;5015416;28;20032;-86
2023/05/06 05:30:36;;;;;;;2.78;1.77;;;14.20;79.80;;;;;;5014131;28;20024;-90
2023/05/06 05:33:02;;;;;;;3.92;1.92;;;14.10;79.80;;;;;;5024028;28;20131;-90
2023/05/06 05:35:28;;;;;;;3.33;2.20;;;14.20;80.00;;;;;;5016977;28;20393;-90
2023/05/06 05:37:54;;;;;;;3.67;2.53;;;14.20;80.20;;;;;;5003824;28;20030;-90
2023/05/06 05:40:20;;;;;;;3.72;2.15;;;14.20;80.20;;;;;;5065760;28;20591;-87
2023/05/06 05:42:45;;;;;;;5.03;2.13;;;14.20;80.20;;;;;;5033639;28;20018;-86
2023/05/06 05:45:11;;;;;;;2.50;1.73;;;14.30;80.20;;;;;;5003643;28;20033;-90
2023/05/06 05:47:37;;;;;;;4.43;2.40;;;14.30;80.20;;;;;;5018708;28;20022;-86
2023/05/06 05:50:03;;;;;;;4.90;2.72;;;14.40;80.10;;;;;;4996657;28;20027;-86
2023/05/06 05:52:29;;;;;;;3.28;2.30;;;14.40;80.00;;;;;;5023833;28;20032;-86
2023/05/06 05:54:54;;;;;;;3.50;2.63;;;14.40;80.10;;;;;;5023396;28;20115;-86
2023/05/06 05:57:20;;;;;;;2.33;1.77;;;14.40;80.20;;;;;;4995636;28;20030;-86
2023/05/06 05:59:46;;;;;;;2.58;2.00;;;14.50;80.20;;;;;;5012316;28;20483;-86
2023/05/06 06:02:11;;;;;;;3.63;2.70;;;14.50;80.20;;;;;;5012193;28;20040;-90
2023/05/06 06:04:37;;;;;;;2.83;2.10;;;14.60;80.30;;;;;;4989489;28;20078;-90
2023/05/06 06:07:03;;;;;;;3.97;2.55;;;14.60;80.30;;;;;;5031223;28;20029;-89
2023/05/06 06:09:28;;;;;;;1.92;1.48;;;14.70;80.20;;;;;;5013542;28;20050;-90
2023/05/06 06:11:54;;;;;;;2.28;1.85;;;14.60;80.10;;;;;;4997584;28;20036;-90
2023/05/06 06:14:20;;;;;;;3.25;2.22;;;14.60;80.20;;;;;;4993925;28;20061;-90
2023/05/06 06:16:46;;;;;;;3.80;2.70;;;14.60;80.00;;;;;;5015466;28;20038;-89
2023/05/06 06:19:13;;;;;;;4.38;2.75;;;14.70;80.10;;;;;;5006337;28;20124;-89
2023/05/06 06:21:39;;;;;;;3.53;2.38;;;14.70;80.10;;;;;;5013840;28;20473;-90
2023/05/06 06:24:04;;;;;;;3.53;2.28;;;14.70;80.40;;;;;;5016028;28;20172;-86
2023/05/06 06:26:30;;;;;;;4.38;2.25;;;14.80;80.40;;;;;;5008964;28;20039;-87
2023/05/06 06:28:56;;;;;;;2.00;1.80;;;14.90;80.10;;;;;;4996943;28;20029;-87
2023/05/06 06:31:22;;;;;;;3.50;2.55;;;15.00;79.80;;;;;;5030848;28;20152;-87
2023/05/06 06:33:47;;;;;;;4.63;2.75;;;15.20;79.80;;;;;;5008976;28;20049;-90
2023/05/06 06:36:13;;;;;;;3.28;2.30;;;15.20;79.60;;;;;;5033435;28;20131;-90
2023/05/06 06:38:40;;;;;;;4.10;2.38;;;15.30;79.50;;;;;;5011676;28;20472;-90
2023/05/06 06:41:09;;;;;;;5.25;2.75;;;15.40;79.40;;;;;;5017584;28;20374;-89
2023/05/06 06:43:34;;;;;;;5.43;2.65;;;15.40;79.50;;;;;;5022898;28;20479;-90
2023/05/06 06:46:00;;;;;;;3.97;2.05;;;15.40;79.60;;;;;;5001928;28;20086;-89
2023/05/06 06:48:26;;;;;;;3.65;2.17;;;15.40;79.60;;;;;;4998078;28;20036;-90
2023/05/06 06:50:51;;;;;;;3.13;2.42;;;15.40;79.70;;;;;;5001177;28;20033;-90
2023/05/06 06:53:17;;;;;;;6.22;2.33;;;15.50;79.60;;;;;;4998727;28;20073;-90
2023/05/06 06:55:43;;;;;;;3.47;2.15;;;15.50;79.50;;;;;;5012186;28;20022;-90
2023/05/06 06:58:12;;;;;;;10.43;2.85;;;15.50;79.50;;;;;;5018160;28;20026;-91
2023/05/06 07:00:37;;;;;;;3.50;2.03;;;15.40;79.50;;;;;;5012433;28;20065;-90
2023/05/06 07:03:03;;;;;;;2.95;1.92;;;15.50;79.70;;;;;;5034351;28;20060;-90
2023/05/06 07:05:29;;;;;;;4.38;2.60;;;15.50;79.80;;;;;;5021252;28;20057;-90
2023/05/06 07:07:55;;;;;;;4.95;2.88;;;15.50;79.80;;;;;;5017845;28;20563;-90
2023/05/06 07:10:21;;;;;;;3.53;2.15;;;15.60;79.70;;;;;;5000214;28;20033;-91
2023/05/06 07:12:46;;;;;;;6.20;3.88;;;15.70;79.70;;;;;;5017984;28;20022;-90
2023/05/06 07:15:12;;;;;;;5.57;2.65;;;15.80;79.70;;;;;;5034820;28;20025;-91
2023/05/06 07:17:38;;;;;;;3.22;2.60;;;15.90;79.60;;;;;;5014962;28;20075;-87
2023/05/06 07:20:04;;;;;;;5.30;3.17;;;16.00;79.50;;;;;;4999005;28;20033;-87
2023/05/06 07:22:30;;;;;;;4.10;3.03;;;16.00;79.30;;;;;;4999321;28;20025;-87
2023/05/06 07:24:55;;;;;;;3.33;2.10;;;16.10;79.20;;;;;;4999848;28;20032;-87
2023/05/06 07:27:22;;;;;;;2.05;1.80;;;16.20;79.30;;;;;;5017362;28;20109;-90
2023/05/06 07:29:48;;;;;;;4.70;2.95;;;16.20;78.90;;;;;;5019050;28;20034;-91
2023/05/06 07:32:14;;;;;;;3.53;2.42;;;16.30;78.90;;;;;;5040619;28;20048;-91
2023/05/06 07:34:40;;;;;;;3.60;1.85;;;16.20;78.70;;;;;;5056602;28;20029;-91
2023/05/06 07:37:07;;;;;;;3.20;2.13;;;16.20;78.80;;;;;;5015704;28;20034;-91
2023/05/06 07:39:32;;;;;;;3.60;2.47;;;16.30;78.90;;;;;;5019112;28;20022;-91
2023/05/06 07:41:58;;;;;;;4.45;2.95;;;16.30;78.80;;;;;;5016246;28;20037;-87
2023/05/06 07:44:24;;;;;;;3.10;1.90;;;16.50;78.70;;;;;;5012383;28;20079;-91
2023/05/06 07:46:50;;;;;;;3.08;2.08;;;16.60;78.50;;;;;;5009397;28;20118;-91
2023/05/06 07:49:16;;;;;;;2.58;1.73;;;16.70;78.30;;;;;;5016466;28;20026;-91
2023/05/06 07:51:42;;;;;;;3.00;2.22;;;16.80;78.20;;;;;;5020405;28;20056;-92
2023/05/06 07:54:08;;;;;;;4.38;2.53;;;17.00;78.10;;;;;;5036700;28;20401;-91
2023/05/06 07:56:34;;;;;;;4.82;3.05;;;17.00;77.80;;;;;;5057840;28;20058;-92
2023/05/06 07:59:00;;;;;;;4.10;2.60;;;17.10;77.80;;;;;;5022200;28;20025;-91
2023/05/06 08:01:27;;;;;;;5.05;2.72;;;17.20;77.60;;;;;;5031770;28;20029;-92
2023/05/06 08:03:53;;;;;;;4.80;2.13;;;17.30;77.50;;;;;;5036263;28;20057;-91
2023/05/06 08:06:19;;;;;;;4.93;2.13;;;17.40;77.20;;;;;;5009970;28;20101;-92
2023/05/06 08:08:45;;;;;;;4.18;2.65;;;17.60;77.10;;;;;;5038673;28;20040;-92
2023/05/06 08:11:11;;;;;;;4.50;3.50;;;17.70;76.90;;;;;;5028792;28;20056;-86
2023/05/06 08:17:21;;;;;;;6.55;3.70;;;17.70;76.40;;;;;;5037189;28;20064;-93
2023/05/06 08:19:47;;;;;;;3.83;3.28;;;17.70;76.20;;;;;;5015334;28;20496;-92
2023/05/06 08:22:13;;;;;;;5.72;3.22;;;17.60;76.20;;;;;;5002904;28;20026;-92
2023/05/06 08:24:39;;;;;;;5.80;3.25;;;17.60;76.20;;;;;;5018497;28;20060;-87
2023/05/06 08:27:05;;;;;;;5.88;3.53;;;17.60;76.00;;;;;;5000545;28;20064;-87
2023/05/06 08:29:30;;;;;;;4.60;3.22;;;17.70;76.00;;;;;;5003325;28;20029;-92
2023/05/06 08:31:56;;;;;;;4.18;3.25;;;17.70;75.80;;;;;;5022742;28;20025;-91
2023/05/06 08:34:22;;;;;;;6.03;2.90;;;17.80;75.80;;;;;;5023168;28;21979;-92
2023/05/06 08:36:48;;;;;;;2.47;1.88;;;17.90;75.70;;;;;;5021784;28;20040;-92
2023/05/06 08:39:14;;;;;;;3.13;1.98;;;18.00;75.50;;;;;;5038350;28;20543;-91
2023/05/06 08:41:40;;;;;;;2.35;1.85;;;18.20;75.20;;;;;;5002502;28;20107;-91
2023/05/06 08:44:07;;;;;;;3.92;2.47;;;18.30;74.80;;;;;;5019054;28;20473;-92
2023/05/06 08:46:33;;;;;;;2.42;1.83;;;18.40;74.70;;;;;;5030509;28;20027;-87
2023/05/06 08:48:59;;;;;;;4.25;2.97;;;18.50;74.50;;;;;;4999126;28;20516;-91
2023/05/06 08:51:30;;;;;;;4.10;3.03;;;18.60;74.50;;;;;;5017989;28;20113;-91
2023/05/06 08:54:02;;;;;;;5.53;3.00;;;18.70;74.40;;;;;;5019189;28;20025;-92
2023/05/06 08:56:31;;;;;;;4.90;2.72;;;18.80;73.90;;;;;;5034614;28;20033;-92
2023/05/06 08:58:57;;;;;;;4.55;2.80;;;18.90;73.90;;;;;;5017979;28;20029;-92
2023/05/06 09:01:26;;;;;;;3.95;2.50;;;19.00;74.00;;;;;;5013574;28;20487;-93
2023/05/06 09:03:53;;;;;;;3.33;2.17;;;19.10;73.80;;;;;;5002442;28;20022;-92
2023/05/06 09:06:18;;;;;;;2.92;2.63;;;19.30;73.50;;;;;;5018062;28;20057;-92
2023/05/06 09:08:44;;;;;;;3.20;2.85;;;19.40;73.00;;;;;;5017783;28;20092;-92
2023/05/06 09:11:24;;;;;;;3.95;2.50;;;19.40;72.90;;;;;;5001576;28;20064;-92
2023/05/06 09:14:05;;;;;;;1.92;1.50;;;19.50;72.90;;;;;;5037974;28;20030;-93
2023/05/06 09:16:31;;;;;;;3.17;2.17;;;19.60;72.70;;;;;;5020916;28;20026;-92
2023/05/06 09:18:58;;;;;;;2.55;1.70;;;19.80;72.20;;;;;;5034821;28;20022;-93
2023/05/06 09:21:34;;;;;;;6.38;2.30;;;19.80;72.10;;;;;;5018793;28;20053;-92
2023/05/06 09:24:01;;;;;;;4.10;2.40;;;19.90;71.80;;;;;;5017640;28;20021;-93
2023/05/06 09:26:31;;;;;;;6.20;3.55;;;20.00;71.90;;;;;;5018600;28;20018;-92
2023/05/06 09:28:58;;;;;;;3.42;2.22;;;20.00;71.70;;;;;;5019889;28;20034;-92
2023/05/06 09:31:25;;;;;;;3.05;2.28;;;20.10;71.60;;;;;;5018940;28;20034;-92
2023/05/06 09:33:52;;;;;;;3.38;2.00;;;20.10;71.50;;;;;;5032898;28;20064;-91
2023/05/06 09:36:18;;;;;;;5.50;3.05;;;20.20;71.30;;;;;;5039074;28;20029;-92
2023/05/06 09:38:44;;;;;;;4.00;2.47;;;20.40;70.60;;;;;;5057874;28;20033;-91
2023/05/06 09:41:11;;;;;;;3.15;2.35;;;20.50;70.40;;;;;;5026366;28;20059;-92
2023/05/06 09:43:40;;;;;;;2.67;1.88;;;20.60;70.00;;;;;;5041205;28;20021;-93
2023/05/06 09:46:07;;;;;;;3.35;1.85;;;20.70;69.60;;;;;;5034577;28;20505;-86
2023/05/06 09:48:33;;;;;;;2.28;2.08;;;20.80;69.30;;;;;;5025521;28;20122;-86
2023/05/06 09:51:01;;;;;;;4.10;2.63;;;20.90;69.20;;;;;;5010661;28;20187;-86
2023/05/06 09:53:28;;;;;;;3.08;2.70;;;20.90;69.10;;;;;;5038380;28;20025;-92
2023/05/06 09:55:57;;;;;;;3.55;1.73;;;20.80;68.70;;;;;;5032006;28;20090;-86
2023/05/06 09:58:24;;;;;;;3.22;1.75;;;20.80;69.00;;;;;;5027292;28;20416;-86
2023/05/06 10:00:51;;;;;;;3.83;2.13;;;20.90;69.10;;;;;;5030618;28;20041;-86
2023/05/06 10:03:19;;;;;;;2.30;1.95;;;21.00;68.80;;;;;;5034215;28;20025;-93
2023/05/06 10:05:45;;;;;;;2.28;1.90;;;21.10;68.50;;;;;;5037856;28;20082;-92
2023/05/06 10:08:17;;;;;;;2.10;1.85;;;21.20;67.20;;;;;;5038352;28;20033;-93
2023/05/06 10:10:44;;;;;;;2.75;1.95;;;21.30;67.00;;;;;;5037631;28;20033;-91
2023/05/06 10:13:10;;;;;;;2.40;1.80;;;21.30;66.50;;;;;;5037129;28;20025;-92
2023/05/06 10:15:37;;;;;;;2.67;1.95;;;21.40;66.50;;;;;;5037266;28;20395;-93
2023/05/06 10:18:04;;;;;;;2.28;1.83;;;21.40;66.50;;;;;;5037953;28;20028;-93
2023/05/06 10:20:32;;;;;;;2.05;1.48;;;21.40;66.40;;;;;;5020822;28;20021;-93
2023/05/06 10:23:12;;;;;;;2.63;1.75;;;21.40;66.60;;;;;;5054446;28;20079;-93
2023/05/06 10:25:43;;;;;;;2.80;1.55;;;21.40;66.50;;;;;;5038195;28;20116;-93
2023/05/06 10:28:10;;;;;;;2.53;2.28;;;21.60;66.20;;;;;;5037830;28;20503;-93
2023/05/06 10:30:38;;;;;;;1.55;1.40;;;21.50;65.50;;;;;;5021309;28;20052;-94
2023/05/06 10:33:09;;;;;;;3.47;1.67;;;21.50;66.10;;;;;;5041269;28;20054;-86
2023/05/06 10:35:35;;;;;;;3.28;1.70;;;21.50;66.40;;;;;;5024674;28;20068;-86
2023/05/06 10:38:04;;;;;;;1.50;1.40;;;21.80;66.30;;;;;;5063443;28;20522;-86
2023/05/06 10:40:30;;;;;;;1.13;1.00;;;22.00;65.50;;;;;;5055253;28;20025;-93
2023/05/06 10:46:18;;;;;;;1.75;1.00;;;22.30;64.40;;;;;;5048531;28;20573;-86
2023/05/06 10:49:03;;;;;;;3.53;1.20;;;22.50;63.50;;;;;;5032397;28;20044;-91
2023/05/06 10:51:30;;;;;;;2.58;1.50;;;22.50;62.50;;;;;;5038293;28;20029;-91
2023/05/06 10:54:03;;;;;;;1.45;1.35;;;22.40;61.60;;;;;;5040439;28;20082;-91
2023/05/06 10:56:49;;;;;;;1.65;1.08;;;22.30;61.80;;;;;;5037846;28;20057;-92
2023/05/06 10:59:21;;;;;;;1.27;0.98;;;22.10;62.40;;;;;;5037830;28;20404;-94
2023/05/06 11:01:55;;;;;;;0.95;0.90;;;22.10;63.00;;;;;;5036982;28;20049;-93
2023/05/06 11:04:21;;;;;;;1.60;1.10;;;22.10;63.10;;;;;;5054576;28;20021;-91
2023/05/06 11:06:49;;;;;;;1.75;1.00;;;22.20;62.70;;;;;;5037309;28;20028;-93
2023/05/06 11:09:15;;;;;;;0.90;0.70;;;22.10;62.40;;;;;;5035801;28;20039;-86
2023/05/06 11:11:47;;;;;;;17.45;1.38;;;22.20;62.70;;;;;;5044765;28;20032;-85
2023/05/06 11:14:14;;;;;;;1.00;0.90;;;22.30;62.00;;;;;;5031111;28;20039;-86
2023/05/06 11:16:51;;;;;;;1.30;0.82;;;22.30;62.00;;;;;;5033725;28;20368;-86
2023/05/06 11:19:22;;;;;;;2.78;0.80;;;22.40;61.70;;;;;;5036680;28;20454;-85
2023/05/06 11:21:48;;;;;;;1.00;0.90;;;22.50;61.60;;;;;;5039732;28;20052;-93
2023/05/06 11:24:22;;;;;;;1.25;0.80;;;22.70;61.00;;;;;;5019414;28;20028;-84
2023/05/06 11:26:49;;;;;;;1.17;1.08;;;22.90;60.70;;;;;;5071333;28;20546;-86
2023/05/06 11:29:16;;;;;;;1.45;0.82;;;23.00;60.20;;;;;;5038285;28;20396;-92
2023/05/06 11:32:19;;;;;;;2.00;1.15;;;23.10;59.60;;;;;;5056955;28;20013;-91
2023/05/06 11:34:45;;;;;;;0.88;0.70;;;23.20;59.30;;;;;;5072691;28;20510;-90
2023/05/06 11:40:32;;;;;;;0.80;0.80;;;23.80;58.50;;;;;;5056155;28;20040;-91
2023/05/06 11:46:22;;;;;;;0.57;0.57;;;24.20;57.70;;;;;;5066851;28;20112;-92
2023/05/06 11:48:49;;;;;;;0.80;0.70;;;24.30;57.40;;;;;;5059914;28;20275;-92
2023/05/06 11:51:15;;;;;;;0.77;0.75;;;24.30;56.60;;;;;;5025890;28;20108;-91
2023/05/06 11:53:41;;;;;;;0.98;0.60;;;24.30;56.30;;;;;;5039208;28;20053;-92
2023/05/06 11:56:07;;;;;;;0.95;0.70;;;24.20;56.70;;;;;;5038887;28;20037;-92
2023/05/06 11:58:33;;;;;;;1.83;1.15;;;24.20;56.90;;;;;;5056805;28;20025;-93
2023/05/06 12:01:01;;;;;;;0.65;0.47;;;24.30;56.60;;;;;;5039231;28;20482;-94
2023/05/06 12:03:28;;;;;;;1.13;0.68;;;24.40;56.50;;;;;;5026031;28;20037;-86
2023/05/06 12:05:55;;;;;;;1.60;1.35;;;24.50;56.20;;;;;;5036327;28;20223;-85
2023/05/06 12:08:31;;;;;;;1.90;1.25;;;24.60;55.60;;;;;;5049982;28;20039;-84
2023/05/06 12:11:02;;;;;;;1.02;0.82;;;24.60;53.60;;;;;;5045686;28;20083;-84
2023/05/06 12:13:28;;;;;;;0.60;0.60;;;24.50;53.60;;;;;;5026678;28;20056;-84
2023/05/06 12:15:57;;;;;;;2.63;0.77;;;24.50;53.90;;;;;;5016583;28;20029;-85
2023/05/06 12:18:23;;;;;;;1.15;0.90;;;24.60;53.30;;;;;;5033287;28;20021;-85
2023/05/06 12:20:49;;;;;;;1.00;0.88;;;24.60;53.10;;;;;;5026708;28;20079;-84
2023/05/06 12:23:15;;;;;;;2.45;1.48;;;24.60;52.60;;;;;;5021152;28;20040;-94
2023/05/06 12:25:43;;;;;;;0.70;0.70;;;24.60;52.80;;;;;;5039930;28;20082;-93
2023/05/06 12:28:16;;;;;;;0.75;0.60;;;24.80;53.10;;;;;;5039602;28;20096;-93
2023/05/06 12:30:43;;;;;;;3.20;0.75;;;25.00;52.60;;;;;;5041396;28;20029;-93
2023/05/06 12:33:10;;;;;;;1.90;0.90;;;25.20;52.20;;;;;;5049343;28;20443;-84
2023/05/06 12:35:36;;;;;;;1.25;0.50;;;25.20;52.60;;;;;;5049005;28;20190;-85
2023/05/06 12:38:09;;;;;;;1.55;0.77;;;25.30;51.50;;;;;;5063947;28;20561;-85
2023/05/06 12:40:35;;;;;;;3.95;1.05;;;25.30;50.80;;;;;;5039986;28;20032;-92
2023/05/06 12:43:01;;;;;;;1.63;1.23;;;25.40;50.20;;;;;;5039647;28;20090;-92
2023/05/06 12:45:27;;;;;;;1.25;0.73;;;25.30;50.40;;;;;;5038409;28;20029;-84
2023/05/06 12:47:54;;;;;;;0.70;0.70;;;25.30;50.80;;;;;;5049358;28;20506;-84
2023/05/06 12:50:42;;;;;;;1.67;1.05;;;25.40;51.00;;;;;;5025691;28;20029;-84
2023/05/06 12:53:12;;;;;;;0.65;0.65;;;25.40;50.50;;;;;;5024829;28;20087;-85
2023/05/06 12:55:38;;;;;;;0.93;0.93;;;25.40;50.20;;;;;;5038429;28;20033;-93
2023/05/06 12:58:15;;;;;;;1.60;0.63;;;25.40;49.70;;;;;;5054918;28;20121;-85
2023/05/06 13:00:41;;;;;;;0.70;0.70;;;25.30;49.70;;;;;;5076031;28;20028;-94